createdAt,value
2019-03-15T00:00:29.062Z,6.22
2019-03-15T00:01:29.062Z,6.30
2019-03-15T00:02:29.041Z,6.25
2019-03-15T00:03:29.037Z,6.22
2019-03-15T00:04:29.021Z,6.21
2019-03-15T00:05:29.009Z,6.26
2019-03-15T00:06:29.007Z,6.22
2019-03-15T00:07:28.987Z,6.33
2019-03-15T00:08:28.975Z,6.32
2019-03-15T00:09:28.970Z,6.33
2019-03-15T00:10:28.954Z,6.28
2019-03-15T00:11:29.352Z,6.30
2019-03-15T00:12:28.934Z,6.29
2019-03-15T00:13:28.923Z,6.32
2019-03-15T00:14:28.920Z,6.26
2019-03-15T00:15:28.903Z,6.28
2019-03-15T00:16:28.892Z,6.25
2019-03-15T00:17:28.891Z,6.26
2019-03-15T00:18:28.869Z,6.22
2019-03-15T00:19:28.864Z,6.22
2019-03-15T00:20:28.846Z,6.13
2019-03-15T00:21:28.836Z,6.28
2019-03-15T00:22:28.835Z,6.11
2019-03-15T00:23:28.818Z,6.10
2019-03-15T00:24:28.805Z,6.10
2019-03-15T00:25:28.799Z,6.10
2019-03-15T00:26:28.787Z,6.19
2019-03-15T00:27:28.790Z,6.14
2019-03-15T00:28:28.761Z,6.18
2019-03-15T00:29:28.750Z,6.07
2019-03-15T00:30:28.739Z,6.16
2019-03-15T00:31:28.734Z,6.09
2019-03-15T00:32:28.726Z,6.10
2019-03-15T00:33:28.705Z,6.14
2019-03-15T00:34:28.695Z,6.13
2019-03-15T00:35:28.685Z,6.14
2019-03-15T00:36:28.674Z,6.14
2019-03-15T00:37:28.672Z,6.16
2019-03-15T00:38:28.658Z,6.10
2019-03-15T00:39:28.641Z,6.04
2019-03-15T00:40:28.642Z,6.06
2019-03-15T00:41:28.619Z,6.11
2019-03-15T00:42:28.620Z,6.10
2019-03-15T00:43:28.604Z,6.10
2019-03-15T00:44:28.586Z,6.13
2019-03-15T00:45:28.575Z,6.14
2019-03-15T00:46:28.565Z,6.10
2019-03-15T00:47:28.560Z,6.13
2019-03-15T00:48:28.646Z,6.18
2019-03-15T00:49:28.531Z,6.14
2019-03-15T00:50:28.520Z,6.10
2019-03-15T00:51:28.510Z,6.13
2019-03-15T00:52:28.507Z,6.13
2019-03-15T00:53:28.488Z,6.03
2019-03-15T00:54:28.483Z,6.10
2019-03-15T00:55:28.467Z,6.01
2019-03-15T00:56:28.454Z,6.13
2019-03-15T00:57:28.451Z,6.00
2019-03-15T00:58:28.434Z,6.11
2019-03-15T00:59:28.422Z,6.07
2019-03-15T01:00:28.412Z,6.04
2019-03-15T01:01:28.403Z,6.00
2019-03-15T01:02:28.397Z,6.00
2019-03-15T01:03:28.377Z,5.98
2019-03-15T01:04:28.367Z,5.96
2019-03-15T01:05:28.359Z,5.96
2019-03-15T01:06:28.350Z,6.00
2019-03-15T01:07:28.344Z,6.03
2019-03-15T01:08:28.326Z,5.92
2019-03-15T01:09:28.313Z,5.98
2019-03-15T01:10:28.301Z,5.92
2019-03-15T01:11:28.291Z,5.95
2019-03-15T01:12:28.289Z,5.96
2019-03-15T01:13:28.268Z,5.96
2019-03-15T01:14:28.258Z,6.00
2019-03-15T01:15:28.247Z,5.98
2019-03-15T01:16:28.237Z,6.03
2019-03-15T01:17:28.240Z,5.95
2019-03-15T01:18:28.215Z,6.06
2019-03-15T01:19:28.205Z,6.03
2019-03-15T01:20:28.197Z,6.01
2019-03-15T01:21:28.181Z,5.98
2019-03-15T01:22:28.183Z,5.98
2019-03-15T01:23:28.172Z,5.98
2019-03-15T01:24:28.155Z,6.00
2019-03-15T01:25:28.138Z,6.01
2019-03-15T01:26:28.127Z,6.09
2019-03-15T01:27:28.126Z,6.10
2019-03-15T01:28:28.110Z,6.14
2019-03-15T01:29:28.128Z,6.04
2019-03-15T01:30:28.084Z,6.10
2019-03-15T01:31:28.072Z,6.04
2019-03-15T01:32:28.069Z,6.04
2019-03-15T01:33:28.051Z,6.07
2019-03-15T01:34:28.042Z,6.10
2019-03-15T01:35:28.029Z,6.14
2019-03-15T01:36:28.019Z,6.10
2019-03-15T01:37:28.058Z,6.14
2019-03-15T01:38:28.003Z,6.10
2019-03-15T01:39:27.986Z,6.10
2019-03-15T01:40:27.974Z,6.10
2019-03-15T01:41:27.964Z,6.14
2019-03-15T01:42:27.961Z,6.14
2019-03-15T01:43:27.942Z,6.16
2019-03-15T01:44:27.929Z,6.13
2019-03-15T01:45:27.920Z,6.16
2019-03-15T01:46:27.910Z,6.16
2019-03-15T01:47:27.906Z,6.16
2019-03-15T01:48:27.890Z,6.21
2019-03-15T01:49:27.875Z,6.25
2019-03-15T01:50:27.864Z,6.29
2019-03-15T01:51:27.855Z,6.22
2019-03-15T01:52:27.853Z,6.26
2019-03-15T01:53:27.831Z,6.26
2019-03-15T01:54:27.824Z,6.22
2019-03-15T01:55:27.810Z,6.29
2019-03-15T01:56:27.798Z,6.19
2019-03-15T01:57:27.824Z,6.09
2019-03-15T01:58:27.779Z,6.19
2019-03-15T01:59:27.767Z,6.10
2019-03-15T02:00:27.756Z,6.10
2019-03-15T02:01:27.744Z,6.19
2019-03-15T02:02:27.733Z,6.19
2019-03-15T02:03:27.733Z,6.22
2019-03-15T02:04:27.717Z,6.25
2019-03-15T02:05:27.718Z,6.26
2019-03-15T02:06:27.694Z,6.18
2019-03-15T02:07:27.678Z,6.29
2019-03-15T02:08:27.676Z,6.30
2019-03-15T02:09:27.658Z,6.35
2019-03-15T02:10:27.644Z,6.35
2019-03-15T02:11:27.634Z,6.35
2019-03-15T02:12:27.628Z,6.28
2019-03-15T02:13:27.624Z,6.32
2019-03-15T02:14:27.709Z,6.38
2019-03-15T02:15:27.590Z,6.18
2019-03-15T02:16:27.580Z,6.32
2019-03-15T02:17:27.569Z,6.36
2019-03-15T02:18:27.569Z,6.40
2019-03-15T02:19:27.547Z,6.36
2019-03-15T02:20:27.537Z,6.32
2019-03-15T02:21:27.524Z,6.29
2019-03-15T02:22:27.516Z,6.35
2019-03-15T02:23:27.511Z,6.28
2019-03-15T02:24:27.492Z,6.25
2019-03-15T02:25:27.693Z,6.28
2019-03-15T02:26:27.474Z,6.13
2019-03-15T02:27:27.460Z,6.19
2019-03-15T02:28:27.458Z,6.10
2019-03-15T02:29:27.437Z,6.29
2019-03-15T02:30:27.428Z,6.26
2019-03-15T02:31:27.419Z,6.26
2019-03-15T02:32:27.410Z,6.29
2019-03-15T02:33:27.405Z,6.22
2019-03-15T02:34:27.702Z,6.19
2019-03-15T02:35:27.382Z,6.09
2019-03-15T02:36:27.361Z,6.26
2019-03-15T02:37:27.353Z,6.21
2019-03-15T02:38:27.354Z,6.21
2019-03-15T02:39:27.334Z,6.19
2019-03-15T02:40:27.317Z,6.13
2019-03-15T02:41:27.307Z,6.10
2019-03-15T02:42:27.302Z,6.10
2019-03-15T02:43:27.292Z,6.13
2019-03-15T02:44:27.286Z,6.29
2019-03-15T02:45:27.265Z,6.29
2019-03-15T02:46:27.252Z,6.28
2019-03-15T02:47:27.242Z,6.29
2019-03-15T02:48:27.260Z,6.26
2019-03-15T02:49:27.219Z,6.28
2019-03-15T02:50:27.209Z,6.29
2019-03-15T02:51:27.196Z,6.33
2019-03-15T02:52:27.194Z,6.33
2019-03-15T02:53:27.184Z,6.38
2019-03-15T02:54:27.410Z,6.33
2019-03-15T02:55:27.157Z,6.36
2019-03-15T02:56:27.147Z,6.36
2019-03-15T02:57:27.131Z,6.35
2019-03-15T02:58:27.966Z,6.38
2019-03-15T02:59:27.109Z,6.35
2019-03-15T03:00:27.104Z,6.32
2019-03-15T03:01:27.093Z,6.33
2019-03-15T03:02:27.843Z,6.29
2019-03-15T03:03:27.076Z,6.29
2019-03-15T03:04:27.055Z,6.33
2019-03-15T03:05:27.045Z,6.33
2019-03-15T03:06:28.031Z,6.36
2019-03-15T03:07:27.024Z,6.19
2019-03-15T03:08:27.025Z,6.28
2019-03-15T03:09:27.003Z,6.22
2019-03-15T03:10:26.992Z,6.28
2019-03-15T03:11:26.981Z,6.13
2019-03-15T03:12:26.968Z,6.10
2019-03-15T03:13:26.964Z,6.16
2019-03-15T03:14:26.946Z,6.10
2019-03-15T03:15:26.946Z,6.11
2019-03-15T03:16:26.926Z,6.07
2019-03-15T03:17:26.913Z,6.00
2019-03-15T03:18:26.913Z,6.01
2019-03-15T03:19:28.189Z,6.01
2019-03-15T03:20:26.881Z,5.98
2019-03-15T03:21:27.055Z,5.93
2019-03-15T03:22:26.858Z,5.91
2019-03-15T03:23:26.859Z,5.86
2019-03-15T03:24:26.842Z,5.85
2019-03-15T03:25:26.828Z,5.91
2019-03-15T03:26:27.060Z,5.83
2019-03-15T03:27:26.811Z,5.74
2019-03-15T03:28:27.999Z,5.77
2019-03-15T03:29:26.783Z,5.81
2019-03-15T03:30:26.805Z,5.75
2019-03-15T03:31:26.811Z,5.75
2019-03-15T03:32:26.752Z,5.74
2019-03-15T03:33:26.747Z,5.77
2019-03-15T03:34:26.770Z,5.74
2019-03-15T03:35:26.721Z,5.83
2019-03-15T03:36:26.706Z,5.78
2019-03-15T03:37:26.694Z,5.78
2019-03-15T03:38:26.694Z,5.81
2019-03-15T03:39:26.674Z,5.73
2019-03-15T03:40:26.675Z,5.77
2019-03-15T03:41:26.653Z,5.78
2019-03-15T03:42:26.646Z,5.83
2019-03-15T03:43:26.639Z,5.82
2019-03-15T03:44:26.619Z,5.78
2019-03-15T03:45:26.610Z,5.82
2019-03-15T03:46:27.363Z,5.70
2019-03-15T03:47:26.583Z,5.70
2019-03-15T03:48:26.583Z,5.74
2019-03-15T03:49:27.443Z,5.70
2019-03-15T03:50:26.553Z,5.73
2019-03-15T03:51:26.540Z,5.83
2019-03-15T03:52:26.531Z,5.83
2019-03-15T03:53:26.528Z,5.82
2019-03-15T03:54:26.507Z,5.82
2019-03-15T03:55:26.498Z,5.86
2019-03-15T03:56:26.489Z,5.81
2019-03-15T03:57:26.475Z,5.85
2019-03-15T03:58:26.504Z,5.91
2019-03-15T03:59:26.456Z,5.82
2019-03-15T04:00:26.443Z,5.83
2019-03-15T04:01:26.431Z,5.88
2019-03-15T04:02:26.421Z,5.78
2019-03-15T04:03:26.409Z,5.85
2019-03-15T04:04:26.407Z,5.88
2019-03-15T04:05:26.393Z,5.85
2019-03-15T04:06:26.376Z,5.93
2019-03-15T04:07:26.370Z,5.91
2019-03-15T04:08:26.355Z,5.86
2019-03-15T04:09:26.359Z,5.89
2019-03-15T04:10:26.333Z,5.85
2019-03-15T04:11:26.322Z,5.89
2019-03-15T04:12:26.312Z,5.91
2019-03-15T04:13:26.305Z,5.88
2019-03-15T04:14:26.298Z,5.95
2019-03-15T04:15:26.281Z,5.91
2019-03-15T04:16:26.268Z,5.82
2019-03-15T04:17:26.259Z,5.85
2019-03-15T04:18:26.247Z,5.83
2019-03-15T04:19:26.245Z,5.86
2019-03-15T04:20:26.225Z,5.88
2019-03-15T04:21:26.215Z,5.88
2019-03-15T04:22:26.206Z,5.73
2019-03-15T04:23:26.193Z,5.75
2019-03-15T04:24:26.188Z,5.78
2019-03-15T04:25:26.169Z,5.81
2019-03-15T04:26:26.157Z,5.75
2019-03-15T04:27:26.151Z,5.77
2019-03-15T04:28:26.140Z,5.78
2019-03-15T04:29:26.135Z,5.83
2019-03-15T04:30:26.116Z,5.78
2019-03-15T04:31:26.104Z,5.77
2019-03-15T04:32:26.094Z,5.81
2019-03-15T04:33:26.085Z,5.83
2019-03-15T04:34:28.350Z,5.83
2019-03-15T04:35:26.061Z,5.89
2019-03-15T04:36:26.049Z,5.88
2019-03-15T04:37:26.038Z,5.86
2019-03-15T04:38:26.190Z,5.81
2019-03-15T04:39:26.026Z,5.81
2019-03-15T04:40:26.006Z,5.74
2019-03-15T04:41:25.996Z,5.77
2019-03-15T04:42:25.985Z,5.78
2019-03-15T04:43:26.110Z,5.81
2019-03-15T04:44:25.973Z,5.83
2019-03-15T04:45:25.954Z,5.75
2019-03-15T04:46:25.940Z,5.73
2019-03-15T04:47:25.928Z,5.77
2019-03-15T04:48:25.918Z,5.75
2019-03-15T04:49:25.917Z,5.78
2019-03-15T04:50:25.898Z,5.85
2019-03-15T04:51:25.892Z,5.86
2019-03-15T04:52:25.876Z,5.88
2019-03-15T04:53:25.863Z,5.91
2019-03-15T04:54:25.860Z,5.86
2019-03-15T04:55:25.843Z,5.85
2019-03-15T04:56:25.835Z,5.88
2019-03-15T04:57:25.833Z,5.89
2019-03-15T04:58:25.809Z,5.88
2019-03-15T04:59:25.821Z,5.89
2019-03-15T05:00:25.787Z,5.88
2019-03-15T05:01:25.784Z,5.88
2019-03-15T05:02:25.767Z,5.86
2019-03-15T05:03:25.754Z,5.88
2019-03-15T05:04:25.753Z,5.95
2019-03-15T05:05:25.734Z,5.98
2019-03-15T05:06:25.722Z,5.93
2019-03-15T05:07:25.714Z,5.93
2019-03-15T05:08:25.716Z,5.96
2019-03-15T05:09:25.704Z,6.03
2019-03-15T05:10:25.678Z,6.04
2019-03-15T05:11:25.669Z,6.01
2019-03-15T05:12:25.656Z,5.98
2019-03-15T05:13:25.646Z,5.96
2019-03-15T05:14:25.647Z,5.95
2019-03-15T05:15:25.623Z,6.00
2019-03-15T05:16:25.613Z,5.98
2019-03-15T05:17:25.603Z,5.95
2019-03-15T05:18:25.591Z,6.01
2019-03-15T05:19:25.591Z,6.03
2019-03-15T05:20:25.570Z,5.96
2019-03-15T05:21:25.559Z,5.96
2019-03-15T05:22:25.548Z,6.06
2019-03-15T05:23:25.538Z,5.95
2019-03-15T05:24:25.533Z,5.98
2019-03-15T05:25:25.521Z,5.96
2019-03-15T05:26:25.505Z,5.96
2019-03-15T05:27:25.493Z,6.00
2019-03-15T05:28:25.483Z,5.96
2019-03-15T05:29:25.482Z,6.00
2019-03-15T05:30:25.460Z,6.00
2019-03-15T05:31:25.449Z,5.96
2019-03-15T05:32:25.439Z,6.00
2019-03-15T05:33:25.427Z,5.95
2019-03-15T05:34:25.427Z,5.96
2019-03-15T05:35:25.413Z,6.01
2019-03-15T05:36:25.395Z,5.98
2019-03-15T05:37:25.385Z,5.98
2019-03-15T05:38:25.372Z,5.95
2019-03-15T05:39:25.372Z,5.95
2019-03-15T05:40:25.351Z,6.00
2019-03-15T05:41:25.341Z,5.98
2019-03-15T05:42:25.331Z,5.98
2019-03-15T05:43:25.322Z,6.00
2019-03-15T05:44:25.318Z,5.96
2019-03-15T05:45:25.295Z,5.98
2019-03-15T05:46:25.287Z,5.91
2019-03-15T05:47:25.278Z,5.96
2019-03-15T05:48:25.266Z,5.98
2019-03-15T05:49:25.263Z,6.00
2019-03-15T05:50:25.243Z,5.95
2019-03-15T05:51:25.231Z,6.04
2019-03-15T05:52:25.219Z,6.01
2019-03-15T05:53:25.209Z,6.01
2019-03-15T05:54:25.217Z,6.00
2019-03-15T05:55:25.192Z,5.91
2019-03-15T05:56:25.178Z,6.03
2019-03-15T05:57:25.167Z,5.96
2019-03-15T05:58:25.156Z,5.98
2019-03-15T05:59:25.152Z,6.03
2019-03-15T06:00:25.133Z,5.98
2019-03-15T06:01:25.122Z,5.96
2019-03-15T06:02:25.110Z,5.98
2019-03-15T06:03:25.101Z,6.06
2019-03-15T06:04:25.097Z,5.92
2019-03-15T06:05:25.079Z,5.91
2019-03-15T06:06:25.072Z,5.89
2019-03-15T06:07:25.055Z,5.91
2019-03-15T06:08:27.527Z,5.85
2019-03-15T06:09:25.041Z,5.88
2019-03-15T06:10:25.028Z,5.88
2019-03-15T06:11:25.012Z,5.85
2019-03-15T06:12:25.000Z,5.92
2019-03-15T06:13:24.989Z,5.82
2019-03-15T06:14:25.002Z,5.77
2019-03-15T06:15:24.969Z,5.75
2019-03-15T06:16:24.957Z,5.83
2019-03-15T06:17:24.950Z,5.82
2019-03-15T06:18:24.936Z,5.71
2019-03-15T06:19:24.925Z,5.68
2019-03-15T06:20:24.923Z,5.68
2019-03-15T06:21:24.904Z,5.73
2019-03-15T06:22:24.892Z,5.66
2019-03-15T06:23:24.897Z,5.68
2019-03-15T06:24:24.871Z,5.70
2019-03-15T06:25:24.868Z,5.68
2019-03-15T06:26:24.848Z,5.75
2019-03-15T06:27:24.836Z,5.77
2019-03-15T06:28:24.830Z,5.75
2019-03-15T06:29:24.822Z,5.78
2019-03-15T06:30:24.811Z,5.74
2019-03-15T06:31:24.793Z,5.81
2019-03-15T06:32:24.784Z,5.77
2019-03-15T06:33:24.779Z,5.82
2019-03-15T06:34:24.762Z,5.88
2019-03-15T06:35:24.765Z,5.91
2019-03-15T06:36:24.738Z,5.95
2019-03-15T06:37:24.727Z,5.91
2019-03-15T06:38:24.717Z,5.98
2019-03-15T06:39:24.707Z,5.98
2019-03-15T06:40:24.707Z,5.96
2019-03-15T06:41:24.685Z,6.00
2019-03-15T06:42:24.674Z,6.00
2019-03-15T06:43:24.663Z,5.96
2019-03-15T06:44:24.657Z,5.98
2019-03-15T06:45:24.652Z,5.96
2019-03-15T06:46:24.628Z,5.98
2019-03-15T06:47:24.618Z,6.00
2019-03-15T06:48:24.612Z,6.01
2019-03-15T06:49:24.597Z,6.06
2019-03-15T06:50:24.596Z,6.09
2019-03-15T06:51:24.579Z,6.09
2019-03-15T06:52:24.563Z,6.16
2019-03-15T06:53:24.553Z,6.19
2019-03-15T06:54:24.541Z,6.11
2019-03-15T06:55:25.502Z,6.14
2019-03-15T06:56:24.521Z,6.16
2019-03-15T06:57:24.510Z,6.00
2019-03-15T06:58:24.567Z,6.10
2019-03-15T06:59:24.492Z,6.06
2019-03-15T07:00:24.494Z,6.09
2019-03-15T07:01:24.466Z,6.09
2019-03-15T07:02:24.456Z,6.16
2019-03-15T07:03:24.446Z,6.16
2019-03-15T07:04:24.432Z,6.14
2019-03-15T07:05:24.429Z,6.07
2019-03-15T07:06:24.418Z,6.28
2019-03-15T07:07:24.399Z,6.19
2019-03-15T07:08:24.388Z,6.22
2019-03-15T07:09:24.380Z,6.26
2019-03-15T07:10:24.375Z,6.28
2019-03-15T07:11:24.355Z,6.35
2019-03-15T07:12:24.400Z,6.35
2019-03-15T07:13:24.334Z,6.28
2019-03-15T07:14:24.326Z,6.09
2019-03-15T07:15:24.320Z,6.13
2019-03-15T07:16:24.302Z,6.14
2019-03-15T07:17:24.292Z,6.13
2019-03-15T07:18:24.279Z,6.14
2019-03-15T07:19:27.537Z,6.11
2019-03-15T07:20:24.310Z,6.13
2019-03-15T07:21:24.248Z,6.18
2019-03-15T07:22:24.237Z,6.65
2019-03-15T07:23:24.226Z,6.97
2019-03-15T07:24:25.648Z,7.24
2019-03-15T07:25:24.205Z,7.32
2019-03-15T07:26:24.204Z,7.38
2019-03-15T07:27:24.185Z,7.58
2019-03-15T07:28:24.175Z,7.55
2019-03-15T07:29:24.178Z,7.23
2019-03-15T07:30:24.151Z,7.07
2019-03-15T07:31:24.153Z,6.79
2019-03-15T07:32:24.131Z,6.79
2019-03-15T07:33:24.120Z,6.56
2019-03-15T07:34:24.110Z,6.63
2019-03-15T07:35:24.098Z,6.48
2019-03-15T07:36:24.106Z,6.44
2019-03-15T07:37:24.076Z,6.46
2019-03-15T07:38:24.066Z,6.51
2019-03-15T07:39:26.469Z,6.47
2019-03-15T07:40:24.044Z,6.51
2019-03-15T07:41:25.405Z,6.50
2019-03-15T07:42:24.023Z,6.58
2019-03-15T07:43:24.014Z,6.59
2019-03-15T07:44:24.020Z,6.63
2019-03-15T07:45:23.991Z,6.61
2019-03-15T07:46:23.988Z,6.65
2019-03-15T07:47:23.968Z,6.62
2019-03-15T07:48:26.798Z,6.66
2019-03-15T07:49:23.951Z,6.68
2019-03-15T07:50:23.945Z,6.76
2019-03-15T07:51:23.936Z,6.81
2019-03-15T07:52:23.916Z,6.89
2019-03-15T07:53:23.932Z,6.79
2019-03-15T07:54:23.898Z,6.91
2019-03-15T07:55:23.882Z,6.86
2019-03-15T07:56:23.873Z,6.97
2019-03-15T07:57:23.872Z,6.95
2019-03-15T07:58:23.855Z,6.91
2019-03-15T07:59:23.842Z,6.90
2019-03-15T08:00:23.836Z,6.91
2019-03-15T08:01:23.821Z,6.94
2019-03-15T08:02:23.826Z,6.94
2019-03-15T08:03:23.798Z,6.95
2019-03-15T08:04:23.787Z,6.99
2019-03-15T08:05:23.780Z,7.04
2019-03-15T08:06:34.265Z,6.99
2019-03-15T08:07:35.737Z,6.99
2019-03-15T08:08:24.761Z,7.02
2019-03-15T08:09:23.734Z,7.05
2019-03-15T08:10:23.723Z,7.13
2019-03-15T08:11:23.714Z,7.19
2019-03-15T08:12:23.711Z,7.26
2019-03-15T08:13:23.696Z,7.29
2019-03-15T08:14:23.681Z,7.35
2019-03-15T08:15:23.699Z,7.34
2019-03-15T08:16:23.660Z,7.40
2019-03-15T08:17:23.672Z,7.47
2019-03-15T08:18:24.431Z,7.47
2019-03-15T08:19:23.633Z,7.49
2019-03-15T08:20:23.619Z,7.47
2019-03-15T08:21:23.604Z,7.31
2019-03-15T08:22:23.601Z,7.34
2019-03-15T08:23:23.586Z,7.37
2019-03-15T08:24:23.571Z,7.40
2019-03-15T08:25:23.559Z,7.40
2019-03-15T08:26:23.550Z,7.34
2019-03-15T08:27:23.548Z,7.45
2019-03-15T08:28:23.527Z,7.35
2019-03-15T08:29:23.517Z,7.42
2019-03-15T08:30:23.505Z,7.34
2019-03-15T08:31:23.613Z,7.40
2019-03-15T08:32:23.498Z,7.49
2019-03-15T08:33:23.473Z,7.53
2019-03-15T08:34:23.462Z,7.56
2019-03-15T08:35:24.720Z,7.60
2019-03-15T08:36:23.443Z,7.56
2019-03-15T08:37:23.438Z,7.79
2019-03-15T08:38:23.419Z,7.93
2019-03-15T08:39:23.410Z,7.94
2019-03-15T08:40:25.823Z,8.03
2019-03-15T08:41:23.387Z,8.03
2019-03-15T08:42:23.420Z,8.04
2019-03-15T08:43:23.364Z,7.93
2019-03-15T08:44:23.353Z,8.03
2019-03-15T08:45:23.341Z,7.99
2019-03-15T08:46:23.334Z,7.93
2019-03-15T08:47:23.319Z,8.04
2019-03-15T08:48:23.320Z,8.10
2019-03-15T08:49:23.300Z,8.02
2019-03-15T08:50:24.714Z,8.00
2019-03-15T08:51:23.277Z,7.96
2019-03-15T08:52:23.265Z,7.92
2019-03-15T08:53:23.353Z,7.85
2019-03-15T08:54:23.246Z,7.87
2019-03-15T08:55:23.233Z,7.85
2019-03-15T08:56:23.222Z,7.81
2019-03-15T08:57:23.212Z,7.81
2019-03-15T08:58:23.214Z,7.82
2019-03-15T08:59:23.191Z,7.81
2019-03-15T09:00:23.179Z,7.75
2019-03-15T09:01:24.034Z,7.75
2019-03-15T09:02:23.158Z,7.79
2019-03-15T09:03:28.325Z,7.81
2019-03-15T09:04:24.138Z,7.82
2019-03-15T09:05:23.128Z,7.85
2019-03-15T09:06:23.113Z,7.89
2019-03-15T09:07:23.102Z,7.87
2019-03-15T09:08:23.100Z,7.93
2019-03-15T09:09:23.084Z,7.87
2019-03-15T09:10:24.218Z,7.89
2019-03-15T09:11:23.058Z,7.92
2019-03-15T09:12:23.048Z,7.90
2019-03-15T09:13:23.046Z,7.90
2019-03-15T09:14:23.027Z,7.93
2019-03-15T09:15:23.016Z,7.90
2019-03-15T09:16:23.006Z,7.94
2019-03-15T09:17:22.992Z,7.90
2019-03-15T09:18:23.030Z,7.97
2019-03-15T09:19:22.971Z,7.93
2019-03-15T09:20:22.961Z,7.99
2019-03-15T09:21:22.950Z,7.96
2019-03-15T09:22:22.944Z,8.03
2019-03-15T09:23:22.938Z,8.17
2019-03-15T09:24:22.918Z,8.20
2019-03-15T09:25:22.905Z,8.25
2019-03-15T09:26:22.898Z,8.36
2019-03-15T09:27:22.883Z,8.57
2019-03-15T09:28:22.881Z,8.62
2019-03-15T09:29:22.861Z,8.76
2019-03-15T09:30:24.219Z,8.75
2019-03-15T09:31:22.841Z,8.75
2019-03-15T09:32:22.832Z,8.76
2019-03-15T09:33:22.827Z,8.93
2019-03-15T09:34:22.806Z,8.94
2019-03-15T09:35:22.797Z,9.01
2019-03-15T09:36:22.785Z,8.97
2019-03-15T09:37:22.778Z,8.88
2019-03-15T09:38:22.774Z,8.86
2019-03-15T09:39:22.753Z,8.96
2019-03-15T09:40:25.433Z,8.96
2019-03-15T09:41:31.907Z,8.97
2019-03-15T09:42:23.720Z,9.05
2019-03-15T09:43:22.723Z,9.01
2019-03-15T09:44:22.699Z,9.09
2019-03-15T09:45:22.691Z,9.02
2019-03-15T09:46:22.687Z,8.91
2019-03-15T09:47:22.667Z,8.83
2019-03-15T09:48:22.681Z,8.75
2019-03-15T09:49:22.645Z,8.69
2019-03-15T09:50:33.866Z,8.71
2019-03-15T09:51:23.622Z,8.66
2019-03-15T09:52:22.613Z,8.71
2019-03-15T09:53:22.608Z,8.63
2019-03-15T09:54:22.599Z,8.66
2019-03-15T09:55:32.179Z,8.54
2019-03-15T09:56:23.567Z,8.55
2019-03-15T09:57:22.560Z,8.54
2019-03-15T09:58:22.548Z,8.54
2019-03-15T09:59:22.546Z,8.54
2019-03-15T10:00:22.524Z,8.53
2019-03-15T10:01:34.927Z,8.58
2019-03-15T10:02:30.387Z,8.45
2019-03-15T10:03:23.491Z,8.54
2019-03-15T10:04:22.492Z,8.51
2019-03-15T10:05:22.472Z,8.55
2019-03-15T10:06:22.461Z,8.57
2019-03-15T10:07:22.518Z,8.63
2019-03-15T10:08:23.775Z,8.72
2019-03-15T10:09:22.444Z,8.73
2019-03-15T10:10:22.417Z,8.87
2019-03-15T10:11:22.415Z,9.06
2019-03-15T10:12:22.395Z,9.06
2019-03-15T10:13:22.387Z,9.28
2019-03-15T10:14:22.383Z,9.30
2019-03-15T10:15:22.363Z,9.35
2019-03-15T10:16:22.353Z,9.32
2019-03-15T10:17:23.191Z,9.38
2019-03-15T10:18:22.331Z,9.46
2019-03-15T10:19:22.329Z,9.52
2019-03-15T10:20:22.312Z,9.46
2019-03-15T10:21:22.299Z,9.56
2019-03-15T10:22:22.287Z,9.53
2019-03-15T10:23:22.282Z,9.49
2019-03-15T10:24:22.277Z,9.64
2019-03-15T10:25:22.259Z,9.70
2019-03-15T10:26:22.246Z,9.78
2019-03-15T10:27:22.241Z,9.94
2019-03-15T10:28:22.223Z,10.06
2019-03-15T10:29:22.223Z,10.14
2019-03-15T10:30:22.303Z,10.04
2019-03-15T10:31:22.192Z,10.21
2019-03-15T10:32:22.180Z,10.15
2019-03-15T10:33:22.170Z,10.07
2019-03-15T10:34:22.168Z,10.09
2019-03-15T10:35:22.149Z,10.17
2019-03-15T10:36:22.138Z,10.09
2019-03-15T10:37:22.127Z,10.07
2019-03-15T10:38:22.116Z,10.03
2019-03-15T10:39:22.116Z,10.01
2019-03-15T10:40:22.101Z,9.89
2019-03-15T10:41:22.083Z,9.89
2019-03-15T10:42:22.075Z,9.75
2019-03-15T10:43:22.080Z,9.68
2019-03-15T10:44:22.060Z,9.75
2019-03-15T10:45:22.040Z,9.70
2019-03-15T10:46:22.029Z,9.63
2019-03-15T10:47:22.019Z,9.64
2019-03-15T10:48:25.607Z,9.60
2019-03-15T10:49:22.006Z,9.66
2019-03-15T10:50:21.987Z,9.64
2019-03-15T10:51:21.981Z,9.63
2019-03-15T10:52:21.965Z,9.68
2019-03-15T10:53:21.956Z,9.75
2019-03-15T10:54:21.952Z,9.78
2019-03-15T10:55:21.938Z,9.75
2019-03-15T10:56:21.920Z,9.79
2019-03-15T10:57:21.913Z,9.71
2019-03-15T10:58:21.899Z,9.63
2019-03-15T10:59:21.898Z,9.68
2019-03-15T11:00:21.879Z,9.57
2019-03-15T11:01:21.868Z,9.53
2019-03-15T11:02:21.858Z,9.52
2019-03-15T11:03:21.849Z,9.52
2019-03-15T11:04:21.865Z,9.49
2019-03-15T11:05:21.835Z,9.46
2019-03-15T11:06:21.816Z,9.48
2019-03-15T11:07:21.805Z,9.52
2019-03-15T11:08:24.177Z,9.52
2019-03-15T11:09:21.782Z,9.56
2019-03-15T11:10:21.785Z,9.58
2019-03-15T11:11:21.762Z,9.49
2019-03-15T11:12:21.752Z,9.48
2019-03-15T11:13:21.740Z,9.52
2019-03-15T11:14:21.730Z,9.45
2019-03-15T11:15:21.729Z,9.38
2019-03-15T11:16:21.706Z,9.43
2019-03-15T11:17:21.698Z,9.45
2019-03-15T11:18:21.688Z,9.49
2019-03-15T11:19:21.677Z,9.50
2019-03-15T11:20:21.676Z,9.53
2019-03-15T11:21:21.655Z,9.63
2019-03-15T11:22:21.645Z,9.67
2019-03-15T11:23:21.638Z,9.71
2019-03-15T11:24:21.638Z,9.85
2019-03-15T11:25:21.621Z,9.85
2019-03-15T11:26:21.603Z,9.96
2019-03-15T11:27:21.592Z,10.04
2019-03-15T11:28:21.583Z,10.30
2019-03-15T11:29:21.569Z,10.40
2019-03-15T11:30:21.568Z,10.52
2019-03-15T11:31:21.550Z,10.73
2019-03-15T11:32:21.538Z,10.88
2019-03-15T11:33:21.535Z,11.17
2019-03-15T11:34:21.523Z,11.21
2019-03-15T11:35:21.770Z,11.24
2019-03-15T11:36:21.493Z,11.01
2019-03-15T11:37:21.482Z,10.91
2019-03-15T11:38:21.471Z,10.83
2019-03-15T11:39:21.460Z,10.81
2019-03-15T11:40:21.459Z,10.84
2019-03-15T11:41:21.441Z,10.92
2019-03-15T11:42:21.427Z,11.02
2019-03-15T11:43:21.415Z,11.01
2019-03-15T11:44:21.403Z,11.14
2019-03-15T11:45:21.403Z,11.11
2019-03-15T11:46:21.382Z,11.06
2019-03-15T11:47:21.390Z,10.86
2019-03-15T11:48:21.364Z,10.83
2019-03-15T11:49:21.353Z,10.58
2019-03-15T11:50:21.347Z,10.60
2019-03-15T11:51:21.325Z,10.58
2019-03-15T11:52:21.313Z,10.63
2019-03-15T11:53:21.302Z,10.81
2019-03-15T11:54:21.293Z,10.84
2019-03-15T11:55:21.289Z,10.92
2019-03-15T11:56:26.939Z,10.92
2019-03-15T11:57:22.256Z,10.89
2019-03-15T11:58:21.247Z,10.81
2019-03-15T11:59:21.236Z,10.68
2019-03-15T12:00:21.233Z,10.73
2019-03-15T12:01:21.214Z,10.80
2019-03-15T12:02:21.204Z,10.81
2019-03-15T12:03:21.193Z,10.76
2019-03-15T12:04:21.185Z,10.86
2019-03-15T12:05:21.183Z,10.62
2019-03-15T12:06:21.158Z,10.51
2019-03-15T12:07:21.147Z,10.44
2019-03-15T12:08:21.146Z,10.42
2019-03-15T12:09:21.126Z,10.43
2019-03-15T12:10:21.125Z,10.42
2019-03-15T12:11:21.103Z,10.43
2019-03-15T12:12:21.836Z,10.34
2019-03-15T12:13:21.085Z,10.39
2019-03-15T12:14:21.072Z,10.43
2019-03-15T12:15:21.071Z,10.42
2019-03-15T12:16:21.048Z,10.47
2019-03-15T12:17:21.037Z,10.51
2019-03-15T12:18:21.025Z,10.43
2019-03-15T12:19:21.015Z,10.39
2019-03-15T12:20:21.012Z,10.43
2019-03-15T12:21:20.997Z,10.36
2019-03-15T12:22:20.979Z,10.43
2019-03-15T12:23:20.969Z,10.39
2019-03-15T12:24:20.987Z,10.43
2019-03-15T12:25:20.955Z,10.39
2019-03-15T12:26:20.964Z,10.43
2019-03-15T12:27:20.926Z,10.55
2019-03-15T12:28:20.912Z,10.44
2019-03-15T12:29:20.905Z,10.36
2019-03-15T12:30:20.901Z,10.32
2019-03-15T12:31:20.882Z,10.33
2019-03-15T12:32:23.594Z,10.24
2019-03-15T12:33:20.858Z,10.22
2019-03-15T12:34:20.846Z,10.18
2019-03-15T12:35:20.850Z,10.14
2019-03-15T12:36:20.824Z,10.03
2019-03-15T12:37:20.817Z,10.12
2019-03-15T12:38:20.808Z,10.00
2019-03-15T12:39:20.790Z,10.00
2019-03-15T12:40:20.790Z,10.04
2019-03-15T12:41:20.771Z,10.06
2019-03-15T12:42:20.760Z,10.01
2019-03-15T12:43:20.750Z,10.04
2019-03-15T12:44:20.737Z,9.97
2019-03-15T12:45:20.736Z,10.09
2019-03-15T12:46:20.719Z,10.17
2019-03-15T12:47:20.706Z,10.18
2019-03-15T12:48:20.698Z,10.26
2019-03-15T12:49:20.777Z,10.24
2019-03-15T12:50:20.685Z,10.33
2019-03-15T12:51:31.720Z,10.26
2019-03-15T12:52:21.651Z,10.26
2019-03-15T12:53:20.641Z,10.19
2019-03-15T12:54:20.631Z,10.19
2019-03-15T12:55:20.628Z,10.19
2019-03-15T12:56:20.608Z,10.30
2019-03-15T12:57:20.599Z,10.32
2019-03-15T12:58:20.588Z,10.28
2019-03-15T12:59:20.579Z,10.24
2019-03-15T13:00:20.585Z,10.18
2019-03-15T13:01:20.557Z,10.10
2019-03-15T13:02:20.636Z,10.00
2019-03-15T13:03:20.534Z,9.78
2019-03-15T13:04:20.522Z,9.68
2019-03-15T13:05:20.511Z,9.64
2019-03-15T13:06:20.517Z,9.53
2019-03-15T13:07:20.498Z,9.48
2019-03-15T13:08:20.481Z,9.52
2019-03-15T13:09:20.469Z,9.49
2019-03-15T13:10:20.460Z,9.53
2019-03-15T13:11:20.455Z,9.56
2019-03-15T13:12:20.438Z,9.60
2019-03-15T13:13:20.455Z,9.58
2019-03-15T13:14:20.416Z,9.64